sensor_id;sensor_type;location;lat;lon;timestamp;P1;durP1;ratioP1;P2;durP2;ratioP2
20298;SDS011;10308;42.688;23.256;2023-05-07T05:24:08;8.95;;;8.05;;
20298;SDS011;10308;42.688;23.256;2023-05-07T05:26:42;8.77;;;8.07;;
20298;SDS011;10308;42.688;23.256;2023-05-07T05:29:17;9.07;;;8.30;;
20298;SDS011;10308;42.688;23.256;2023-05-07T05:31:45;8.63;;;7.78;;
20298;SDS011;10308;42.688;23.256;2023-05-07T05:34:15;9.10;;;8.20;;
20298;SDS011;10308;42.688;23.256;2023-05-07T05:36:47;9.18;;;8.25;;
20298;SDS011;10308;42.688;23.256;2023-05-07T05:39:19;9.55;;;8.68;;
20298;SDS011;10308;42.688;23.256;2023-05-07T05:41:50;8.88;;;8.07;;
20298;SDS011;10308;42.688;23.256;2023-05-07T05:44:18;8.63;;;7.93;;
20298;SDS011;10308;42.688;23.256;2023-05-07T05:46:49;8.98;;;8.18;;
20298;SDS011;10308;42.688;23.256;2023-05-07T05:49:22;9.30;;;8.50;;
20298;SDS011;10308;42.688;23.256;2023-05-07T05:51:57;9.25;;;8.45;;
20298;SDS011;10308;42.688;23.256;2023-05-07T05:54:30;9.18;;;8.38;;
20298;SDS011;10308;42.688;23.256;2023-05-07T05:56:58;8.95;;;8.20;;
20298;SDS011;10308;42.688;23.256;2023-05-07T05:59:30;9.40;;;8.57;;
20298;SDS011;10308;42.688;23.256;2023-05-07T06:02:02;8.98;;;8.18;;
20298;SDS011;10308;42.688;23.256;2023-05-07T06:04:32;9.13;;;8.32;;
20298;SDS011;10308;42.688;23.256;2023-05-07T06:07:02;9.13;;;8.25;;
20298;SDS011;10308;42.688;23.256;2023-05-07T06:09:37;9.15;;;8.02;;
20298;SDS011;10308;42.688;23.256;2023-05-07T06:12:05;9.52;;;8.73;;
20298;SDS011;10308;42.688;23.256;2023-05-07T06:14:34;8.80;;;8.10;;
20298;SDS011;10308;42.688;23.256;2023-05-07T06:17:02;9.20;;;8.40;;
20298;SDS011;10308;42.688;23.256;2023-05-07T06:19:37;8.95;;;8.13;;
20298;SDS011;10308;42.688;23.256;2023-05-07T06:22:08;8.63;;;7.85;;
20298;SDS011;10308;42.688;23.256;2023-05-07T06:24:41;8.52;;;7.82;;
20298;SDS011;10308;42.688;23.256;2023-05-07T06:27:11;9.30;;;8.50;;
20298;SDS011;10308;42.688;23.256;2023-05-07T06:29:39;9.68;;;8.77;;
20298;SDS011;10308;42.688;23.256;2023-05-07T06:32:11;9.20;;;8.50;;
20298;SDS011;10308;42.688;23.256;2023-05-07T06:34:41;9.13;;;8.32;;
20298;SDS011;10308;42.688;23.256;2023-05-07T06:37:12;8.90;;;8.20;;
20298;SDS011;10308;42.688;23.256;2023-05-07T06:39:45;9.07;;;8.27;;
20298;SDS011;10308;42.688;23.256;2023-05-07T06:42:17;9.70;;;8.80;;
20298;SDS011;10308;42.688;23.256;2023-05-07T06:44:47;9.77;;;8.93;;
20298;SDS011;10308;42.688;23.256;2023-05-07T06:47:17;9.10;;;8.23;;
20298;SDS011;10308;42.688;23.256;2023-05-07T06:49:47;9.05;;;8.15;;
20298;SDS011;10308;42.688;23.256;2023-05-07T07:51:34;12.13;;;11.00;;
20298;SDS011;10308;42.688;23.256;2023-05-07T07:54:05;11.18;;;10.18;;
20298;SDS011;10308;42.688;23.256;2023-05-07T07:56:31;9.85;;;9.05;;
20298;SDS011;10308;42.688;23.256;2023-05-07T07:59:01;9.48;;;8.48;;
20298;SDS011;10308;42.688;23.256;2023-05-07T08:01:31;11.02;;;8.55;;
20298;SDS011;10308;42.688;23.256;2023-05-07T08:03:59;9.50;;;8.50;;
20298;SDS011;10308;42.688;23.256;2023-05-07T08:06:35;9.73;;;8.85;;
20298;SDS011;10308;42.688;23.256;2023-05-07T08:09:03;10.25;;;9.25;;
20298;SDS011;10308;42.688;23.256;2023-05-07T08:11:31;8.73;;;8.02;;
20298;SDS011;10308;42.688;23.256;2023-05-07T08:13:58;8.88;;;8.07;;
20298;SDS011;10308;42.688;23.256;2023-05-07T08:16:25;8.90;;;7.82;;
20298;SDS011;10308;42.688;23.256;2023-05-07T08:18:55;10.00;;;9.00;;
20298;SDS011;10308;42.688;23.256;2023-05-07T08:21:23;9.88;;;9.07;;
20298;SDS011;10308;42.688;23.256;2023-05-07T08:23:58;10.90;;;9.82;;
20298;SDS011;10308;42.688;23.256;2023-05-07T08:26:26;10.10;;;9.20;;
20298;SDS011;10308;42.688;23.256;2023-05-07T08:28:54;9.52;;;8.52;;
20298;SDS011;10308;42.688;23.256;2023-05-07T08:31:22;9.32;;;8.32;;
20298;SDS011;10308;42.688;23.256;2023-05-07T08:33:50;8.70;;;7.90;;
20298;SDS011;10308;42.688;23.256;2023-05-07T08:36:17;9.63;;;7.68;;
20298;SDS011;10308;42.688;23.256;2023-05-07T08:38:47;7.65;;;6.95;;
20298;SDS011;10308;42.688;23.256;2023-05-07T08:41:20;7.88;;;7.18;;
20298;SDS011;10308;42.688;23.256;2023-05-07T08:43:51;9.50;;;8.55;;
20298;SDS011;10308;42.688;23.256;2023-05-07T08:46:19;9.52;;;8.52;;
20298;SDS011;10308;42.688;23.256;2023-05-07T08:48:50;9.82;;;8.85;;
20298;SDS011;10308;42.688;23.256;2023-05-07T08:51:20;10.05;;;9.02;;
20298;SDS011;10308;42.688;23.256;2023-05-07T08:53:49;9.23;;;8.43;;
20298;SDS011;10308;42.688;23.256;2023-05-07T08:56:23;9.85;;;8.93;;
20298;SDS011;10308;42.688;23.256;2023-05-07T08:58:51;9.50;;;8.50;;
20298;SDS011;10308;42.688;23.256;2023-05-07T09:01:22;9.88;;;8.88;;
20298;SDS011;10308;42.688;23.256;2023-05-07T09:03:52;9.93;;;8.93;;
20298;SDS011;10308;42.688;23.256;2023-05-07T09:06:22;9.88;;;7.80;;
20298;SDS011;10308;42.688;23.256;2023-05-07T09:08:50;8.80;;;7.88;;
20298;SDS011;10308;42.688;23.256;2023-05-07T09:11:25;8.68;;;7.97;;
20298;SDS011;10308;42.688;23.256;2023-05-07T09:13:54;8.32;;;7.53;;
20298;SDS011;10308;42.688;23.256;2023-05-07T09:16:24;9.02;;;8.23;;
20298;SDS011;10308;42.688;23.256;2023-05-07T09:18:54;8.90;;;7.95;;
20298;SDS011;10308;42.688;23.256;2023-05-07T09:21:22;8.38;;;7.65;;
20298;SDS011;10308;42.688;23.256;2023-05-07T09:23:54;8.85;;;7.95;;
20298;SDS011;10308;42.688;23.256;2023-05-07T09:26:27;8.57;;;7.60;;
20298;SDS011;10308;42.688;23.256;2023-05-07T09:28:54;8.27;;;7.55;;
20298;SDS011;10308;42.688;23.256;2023-05-07T09:31:22;8.35;;;7.65;;
20298;SDS011;10308;42.688;23.256;2023-05-07T09:33:53;7.40;;;6.80;;
20298;SDS011;10308;42.688;23.256;2023-05-07T09:36:27;6.82;;;6.22;;
20298;SDS011;10308;42.688;23.256;2023-05-07T09:38:58;7.03;;;6.50;;
20298;SDS011;10308;42.688;23.256;2023-05-07T09:41:29;6.40;;;5.85;;
20298;SDS011;10308;42.688;23.256;2023-05-07T09:43:58;6.60;;;6.00;;
20298;SDS011;10308;42.688;23.256;2023-05-07T09:46:27;6.20;;;5.70;;
20298;SDS011;10308;42.688;23.256;2023-05-07T09:48:59;5.60;;;5.07;;
20298;SDS011;10308;42.688;23.256;2023-05-07T09:51:39;5.75;;;5.25;;
20298;SDS011;10308;42.688;23.256;2023-05-07T09:54:16;7.53;;;5.70;;
20298;SDS011;10308;42.688;23.256;2023-05-07T09:56:46;6.28;;;5.78;;
20298;SDS011;10308;42.688;23.256;2023-05-07T09:59:16;6.57;;;5.97;;
20298;SDS011;10308;42.688;23.256;2023-05-07T10:01:48;6.05;;;5.40;;
20298;SDS011;10308;42.688;23.256;2023-05-07T10:04:16;5.65;;;5.20;;
20298;SDS011;10308;42.688;23.256;2023-05-07T10:06:45;5.20;;;4.80;;
20298;SDS011;10308;42.688;23.256;2023-05-07T10:09:15;5.32;;;4.88;;
20298;SDS011;10308;42.688;23.256;2023-05-07T10:11:45;4.78;;;4.47;;
20298;SDS011;10308;42.688;23.256;2023-05-07T10:14:14;5.53;;;4.72;;
20298;SDS011;10308;42.688;23.256;2023-05-07T10:16:45;5.07;;;4.63;;
20298;SDS011;10308;42.688;23.256;2023-05-07T10:19:18;5.22;;;4.82;;
20298;SDS011;10308;42.688;23.256;2023-05-07T10:21:48;6.60;;;4.78;;
20298;SDS011;10308;42.688;23.256;2023-05-07T10:24:22;5.20;;;4.72;;
20298;SDS011;10308;42.688;23.256;2023-05-07T10:26:57;5.03;;;4.60;;
20298;SDS011;10308;42.688;23.256;2023-05-07T10:29:32;4.80;;;4.40;;
20298;SDS011;10308;42.688;23.256;2023-05-07T10:32:08;4.40;;;4.00;;
20298;SDS011;10308;42.688;23.256;2023-05-07T10:34:43;4.15;;;3.83;;
20298;SDS011;10308;42.688;23.256;2023-05-07T10:37:15;4.70;;;4.30;;
20298;SDS011;10308;42.688;23.256;2023-05-07T10:39:47;4.20;;;3.90;;
20298;SDS011;10308;42.688;23.256;2023-05-07T10:42:20;4.07;;;3.78;;
20298;SDS011;10308;42.688;23.256;2023-05-07T10:44:48;4.88;;;4.40;;
20298;SDS011;10308;42.688;23.256;2023-05-07T10:47:19;4.70;;;4.35;;
20298;SDS011;10308;42.688;23.256;2023-05-07T11:02:11;4.90;;;4.45;;
20298;SDS011;10308;42.688;23.256;2023-05-07T11:04:53;4.70;;;4.30;;
20298;SDS011;10308;42.688;23.256;2023-05-07T11:07:57;4.28;;;3.88;;
20298;SDS011;10308;42.688;23.256;2023-05-07T11:16:23;4.38;;;3.97;;
20298;SDS011;10308;42.688;23.256;2023-05-07T11:18:54;4.93;;;4.20;;
20298;SDS011;10308;42.688;23.256;2023-05-07T11:24:08;5.13;;;4.63;;
20298;SDS011;10308;42.688;23.256;2023-05-07T11:26:44;4.80;;;4.43;;
20298;SDS011;10308;42.688;23.256;2023-05-07T11:29:14;4.97;;;4.57;;
20298;SDS011;10308;42.688;23.256;2023-05-07T11:31:53;4.95;;;4.55;;
20298;SDS011;10308;42.688;23.256;2023-05-07T11:34:27;4.78;;;4.38;;
20298;SDS011;10308;42.688;23.256;2023-05-07T11:36:58;5.10;;;4.70;;
20298;SDS011;10308;42.688;23.256;2023-05-07T11:39:27;4.50;;;4.10;;
20298;SDS011;10308;42.688;23.256;2023-05-07T11:41:57;4.82;;;4.43;;
20298;SDS011;10308;42.688;23.256;2023-05-07T11:47:22;5.28;;;4.65;;
20298;SDS011;10308;42.688;23.256;2023-05-07T11:49:50;5.05;;;4.65;;
20298;SDS011;10308;42.688;23.256;2023-05-07T11:52:20;5.18;;;4.57;;
20298;SDS011;10308;42.688;23.256;2023-05-07T11:54:52;5.25;;;4.85;;
20298;SDS011;10308;42.688;23.256;2023-05-07T11:57:25;4.25;;;3.95;;
20298;SDS011;10308;42.688;23.256;2023-05-07T11:59:55;5.13;;;4.72;;
20298;SDS011;10308;42.688;23.256;2023-05-07T12:02:31;4.88;;;4.32;;
20298;SDS011;10308;42.688;23.256;2023-05-07T12:05:05;4.80;;;4.30;;
20298;SDS011;10308;42.688;23.256;2023-05-07T12:07:37;4.40;;;4.00;;
20298;SDS011;10308;42.688;23.256;2023-05-07T12:10:11;4.28;;;3.88;;
20298;SDS011;10308;42.688;23.256;2023-05-07T12:12:45;4.78;;;4.38;;
20298;SDS011;10308;42.688;23.256;2023-05-07T12:15:15;4.50;;;4.10;;
20298;SDS011;10308;42.688;23.256;2023-05-07T12:17:48;4.75;;;4.35;;
20298;SDS011;10308;42.688;23.256;2023-05-07T12:20:16;3.78;;;3.47;;
20298;SDS011;10308;42.688;23.256;2023-05-07T12:22:45;4.22;;;3.67;;
20298;SDS011;10308;42.688;23.256;2023-05-07T12:25:13;3.40;;;3.20;;
20298;SDS011;10308;42.688;23.256;2023-05-07T12:27:50;3.83;;;3.60;;
20298;SDS011;10308;42.688;23.256;2023-05-07T12:30:19;4.15;;;3.85;;
20298;SDS011;10308;42.688;23.256;2023-05-07T12:32:57;4.05;;;3.70;;
20298;SDS011;10308;42.688;23.256;2023-05-07T12:35:28;3.70;;;3.40;;
20298;SDS011;10308;42.688;23.256;2023-05-07T12:37:58;3.58;;;3.28;;
20298;SDS011;10308;42.688;23.256;2023-05-07T12:40:40;3.90;;;3.60;;
20298;SDS011;10308;42.688;23.256;2023-05-07T12:43:17;3.90;;;3.60;;
20298;SDS011;10308;42.688;23.256;2023-05-07T12:45:47;4.00;;;3.70;;
20298;SDS011;10308;42.688;23.256;2023-05-07T12:48:22;4.35;;;3.97;;
20298;SDS011;10308;42.688;23.256;2023-05-07T12:50:53;5.53;;;4.18;;
20298;SDS011;10308;42.688;23.256;2023-05-07T12:53:26;4.80;;;4.18;;
20298;SDS011;10308;42.688;23.256;2023-05-07T12:55:57;4.10;;;3.80;;
20298;SDS011;10308;42.688;23.256;2023-05-07T12:58:29;4.00;;;3.65;;
20298;SDS011;10308;42.688;23.256;2023-05-07T13:01:00;3.83;;;3.50;;
20298;SDS011;10308;42.688;23.256;2023-05-07T13:03:47;4.57;;;3.60;;
20298;SDS011;10308;42.688;23.256;2023-05-07T13:06:23;4.13;;;3.83;;
20298;SDS011;10308;42.688;23.256;2023-05-07T13:08:53;4.13;;;3.35;;
20298;SDS011;10308;42.688;23.256;2023-05-07T13:11:23;4.30;;;3.90;;
20298;SDS011;10308;42.688;23.256;2023-05-07T13:13:53;4.03;;;3.70;;
20298;SDS011;10308;42.688;23.256;2023-05-07T13:16:21;4.30;;;3.90;;
20298;SDS011;10308;42.688;23.256;2023-05-07T13:18:51;4.43;;;4.03;;
20298;SDS011;10308;42.688;23.256;2023-05-07T13:21:22;3.97;;;3.67;;
20298;SDS011;10308;42.688;23.256;2023-05-07T13:23:52;4.00;;;3.70;;
20298;SDS011;10308;42.688;23.256;2023-05-07T13:26:25;4.22;;;3.92;;
20298;SDS011;10308;42.688;23.256;2023-05-07T13:28:53;4.00;;;3.70;;
20298;SDS011;10308;42.688;23.256;2023-05-07T13:31:24;4.70;;;4.22;;
20298;SDS011;10308;42.688;23.256;2023-05-07T13:33:55;4.60;;;4.30;;
20298;SDS011;10308;42.688;23.256;2023-05-07T13:36:23;4.03;;;3.72;;
20298;SDS011;10308;42.688;23.256;2023-05-07T13:38:53;3.83;;;3.53;;
20298;SDS011;10308;42.688;23.256;2023-05-07T13:41:26;4.38;;;3.97;;
20298;SDS011;10308;42.688;23.256;2023-05-07T13:43:54;4.00;;;3.70;;
20298;SDS011;10308;42.688;23.256;2023-05-07T13:46:25;4.65;;;4.32;;
20298;SDS011;10308;42.688;23.256;2023-05-07T13:48:59;4.50;;;4.10;;
20298;SDS011;10308;42.688;23.256;2023-05-07T13:51:27;5.22;;;4.72;;
20298;SDS011;10308;42.688;23.256;2023-05-07T13:53:54;4.30;;;4.00;;
20298;SDS011;10308;42.688;23.256;2023-05-07T13:56:26;5.07;;;4.18;;
20298;SDS011;10308;42.688;23.256;2023-05-07T13:58:54;4.30;;;3.90;;
20298;SDS011;10308;42.688;23.256;2023-05-07T14:01:22;3.90;;;3.60;;
20298;SDS011;10308;42.688;23.256;2023-05-07T14:03:52;4.35;;;3.95;;
20298;SDS011;10308;42.688;23.256;2023-05-07T14:06:21;4.18;;;3.83;;
20298;SDS011;10308;42.688;23.256;2023-05-07T14:08:50;4.18;;;3.88;;
20298;SDS011;10308;42.688;23.256;2023-05-07T14:11:18;4.32;;;3.92;;
20298;SDS011;10308;42.688;23.256;2023-05-07T14:13:46;3.70;;;3.40;;
20298;SDS011;10308;42.688;23.256;2023-05-07T14:16:18;4.88;;;4.15;;
20298;SDS011;10308;42.688;23.256;2023-05-07T14:18:49;5.45;;;4.30;;
20298;SDS011;10308;42.688;23.256;2023-05-07T14:21:22;4.65;;;4.25;;
20298;SDS011;10308;42.688;23.256;2023-05-07T14:23:50;4.90;;;3.65;;
20298;SDS011;10308;42.688;23.256;2023-05-07T14:26:19;4.10;;;3.80;;
20298;SDS011;10308;42.688;23.256;2023-05-07T14:28:55;5.15;;;4.18;;
20298;SDS011;10308;42.688;23.256;2023-05-07T14:31:23;4.70;;;4.30;;
20298;SDS011;10308;42.688;23.256;2023-05-07T14:33:54;4.03;;;3.72;;
20298;SDS011;10308;42.688;23.256;2023-05-07T14:36:25;3.67;;;3.38;;
20298;SDS011;10308;42.688;23.256;2023-05-07T14:38:58;4.60;;;4.00;;
20298;SDS011;10308;42.688;23.256;2023-05-07T14:41:27;4.88;;;4.38;;
20298;SDS011;10308;42.688;23.256;2023-05-07T14:43:55;4.15;;;3.78;;
20298;SDS011;10308;42.688;23.256;2023-05-07T14:46:24;4.10;;;3.80;;
20298;SDS011;10308;42.688;23.256;2023-05-07T14:48:53;4.50;;;4.10;;
20298;SDS011;10308;42.688;23.256;2023-05-07T14:51:25;4.70;;;3.72;;
20298;SDS011;10308;42.688;23.256;2023-05-07T14:53:54;4.20;;;3.88;;
20298;SDS011;10308;42.688;23.256;2023-05-07T14:56:29;3.80;;;3.42;;
20298;SDS011;10308;42.688;23.256;2023-05-07T14:58:58;4.40;;;4.03;;
20298;SDS011;10308;42.688;23.256;2023-05-07T15:01:25;3.95;;;3.72;;
20298;SDS011;10308;42.688;23.256;2023-05-07T15:03:53;4.18;;;3.78;;
20298;SDS011;10308;42.688;23.256;2023-05-07T15:06:29;4.75;;;3.70;;
20298;SDS011;10308;42.688;23.256;2023-05-07T15:08:57;4.13;;;3.72;;
20298;SDS011;10308;42.688;23.256;2023-05-07T15:11:28;3.90;;;3.60;;
20298;SDS011;10308;42.688;23.256;2023-05-07T15:13:57;4.40;;;3.95;;
20298;SDS011;10308;42.688;23.256;2023-05-07T15:16:26;3.50;;;3.30;;
20298;SDS011;10308;42.688;23.256;2023-05-07T15:18:53;3.60;;;3.30;;
20298;SDS011;10308;42.688;23.256;2023-05-07T15:21:25;4.20;;;3.80;;
20298;SDS011;10308;42.688;23.256;2023-05-07T15:23:53;4.28;;;3.88;;
20298;SDS011;10308;42.688;23.256;2023-05-07T15:26:24;4.00;;;3.63;;
20298;SDS011;10308;42.688;23.256;2023-05-07T15:28:57;3.90;;;3.60;;
20298;SDS011;10308;42.688;23.256;2023-05-07T15:31:28;4.30;;;4.00;;
20298;SDS011;10308;42.688;23.256;2023-05-07T15:33:59;4.22;;;3.75;;
20298;SDS011;10308;42.688;23.256;2023-05-07T15:36:32;4.20;;;3.83;;
20298;SDS011;10308;42.688;23.256;2023-05-07T15:39:02;3.78;;;3.47;;
20298;SDS011;10308;42.688;23.256;2023-05-07T15:41:31;6.65;;;6.05;;
20298;SDS011;10308;42.688;23.256;2023-05-07T15:44:07;5.15;;;3.80;;
20298;SDS011;10308;42.688;23.256;2023-05-07T15:46:37;3.88;;;3.58;;
20298;SDS011;10308;42.688;23.256;2023-05-07T15:49:06;4.63;;;4.22;;
20298;SDS011;10308;42.688;23.256;2023-05-07T15:51:45;4.70;;;3.55;;
20298;SDS011;10308;42.688;23.256;2023-05-07T15:54:17;3.80;;;3.50;;
20298;SDS011;10308;42.688;23.256;2023-05-07T15:56:48;4.03;;;3.70;;
20298;SDS011;10308;42.688;23.256;2023-05-07T15:59:16;3.78;;;3.50;;
20298;SDS011;10308;42.688;23.256;2023-05-07T16:01:46;4.10;;;3.80;;
20298;SDS011;10308;42.688;23.256;2023-05-07T16:04:14;3.80;;;3.50;;
20298;SDS011;10308;42.688;23.256;2023-05-07T16:06:45;4.13;;;3.70;;
20298;SDS011;10308;42.688;23.256;2023-05-07T16:09:17;3.85;;;3.60;;
20298;SDS011;10308;42.688;23.256;2023-05-07T16:11:44;3.97;;;3.60;;
20298;SDS011;10308;42.688;23.256;2023-05-07T16:14:15;4.78;;;4.10;;
20298;SDS011;10308;42.688;23.256;2023-05-07T16:16:46;6.10;;;3.85;;
20298;SDS011;10308;42.688;23.256;2023-05-07T16:19:17;4.45;;;3.95;;
20298;SDS011;10308;42.688;23.256;2023-05-07T16:21:46;3.97;;;3.40;;
20298;SDS011;10308;42.688;23.256;2023-05-07T16:24:14;4.00;;;3.70;;
20298;SDS011;10308;42.688;23.256;2023-05-07T16:26:46;4.30;;;4.00;;
20298;SDS011;10308;42.688;23.256;2023-05-07T16:29:18;4.28;;;3.97;;
20298;SDS011;10308;42.688;23.256;2023-05-07T16:31:48;4.95;;;4.47;;
20298;SDS011;10308;42.688;23.256;2023-05-07T16:34:19;4.78;;;4.30;;
20298;SDS011;10308;42.688;23.256;2023-05-07T16:36:53;4.97;;;4.18;;
20298;SDS011;10308;42.688;23.256;2023-05-07T16:39:24;4.82;;;3.92;;
20298;SDS011;10308;42.688;23.256;2023-05-07T16:42:10;5.03;;;4.63;;
20298;SDS011;10308;42.688;23.256;2023-05-07T16:44:37;6.03;;;4.63;;
20298;SDS011;10308;42.688;23.256;2023-05-07T16:47:12;6.03;;;4.55;;
20298;SDS011;10308;42.688;23.256;2023-05-07T16:49:40;5.75;;;4.55;;
20298;SDS011;10308;42.688;23.256;2023-05-07T16:52:09;4.90;;;4.50;;
20298;SDS011;10308;42.688;23.256;2023-05-07T16:54:36;4.80;;;4.00;;
20298;SDS011;10308;42.688;23.256;2023-05-07T16:57:06;4.47;;;3.85;;
20298;SDS011;10308;42.688;23.256;2023-05-07T16:59:34;4.50;;;4.10;;
20298;SDS011;10308;42.688;23.256;2023-05-07T17:02:05;4.65;;;3.78;;
20298;SDS011;10308;42.688;23.256;2023-05-07T17:04:34;7.32;;;4.20;;
20298;SDS011;10308;42.688;23.256;2023-05-07T17:07:02;5.07;;;4.60;;
20298;SDS011;10308;42.688;23.256;2023-05-07T17:09:37;5.65;;;5.00;;
20298;SDS011;10308;42.688;23.256;2023-05-07T17:12:06;5.45;;;4.45;;
20298;SDS011;10308;42.688;23.256;2023-05-07T17:14:34;5.82;;;4.05;;
20298;SDS011;10308;42.688;23.256;2023-05-07T17:17:01;4.53;;;3.92;;
20298;SDS011;10308;42.688;23.256;2023-05-07T17:19:30;5.40;;;4.13;;
20298;SDS011;10308;42.688;23.256;2023-05-07T17:21:57;4.88;;;4.30;;
20298;SDS011;10308;42.688;23.256;2023-05-07T17:24:26;7.13;;;4.60;;
20298;SDS011;10308;42.688;23.256;2023-05-07T17:27:00;9.73;;;4.78;;
20298;SDS011;10308;42.688;23.256;2023-05-07T17:29:28;4.70;;;4.13;;
20298;SDS011;10308;42.688;23.256;2023-05-07T17:31:58;4.32;;;3.92;;
20298;SDS011;10308;42.688;23.256;2023-05-07T17:34:25;5.05;;;4.20;;
20298;SDS011;10308;42.688;23.256;2023-05-07T17:37:00;7.60;;;4.80;;
20298;SDS011;10308;42.688;23.256;2023-05-07T17:39:29;5.13;;;4.60;;
20298;SDS011;10308;42.688;23.256;2023-05-07T17:42:02;5.65;;;4.38;;
20298;SDS011;10308;42.688;23.256;2023-05-07T17:44:32;5.00;;;4.60;;
20298;SDS011;10308;42.688;23.256;2023-05-07T17:47:00;4.25;;;3.95;;
20298;SDS011;10308;42.688;23.256;2023-05-07T17:49:29;4.78;;;4.28;;
20298;SDS011;10308;42.688;23.256;2023-05-07T17:52:03;5.57;;;4.10;;
20298;SDS011;10308;42.688;23.256;2023-05-07T17:54:36;5.47;;;4.82;;
20298;SDS011;10308;42.688;23.256;2023-05-07T17:57:11;5.80;;;4.70;;
20298;SDS011;10308;42.688;23.256;2023-05-07T17:59:39;6.15;;;5.20;;
20298;SDS011;10308;42.688;23.256;2023-05-07T18:02:09;5.90;;;5.25;;
20298;SDS011;10308;42.688;23.256;2023-05-07T18:04:39;7.47;;;5.07;;
20298;SDS011;10308;42.688;23.256;2023-05-07T18:07:07;5.13;;;4.70;;
20298;SDS011;10308;42.688;23.256;2023-05-07T18:09:36;10.57;;;6.05;;
20298;SDS011;10308;42.688;23.256;2023-05-07T18:12:17;6.00;;;5.50;;
20298;SDS011;10308;42.688;23.256;2023-05-07T18:14:50;5.97;;;5.43;;
20298;SDS011;10308;42.688;23.256;2023-05-07T18:17:17;7.60;;;6.10;;
20298;SDS011;10308;42.688;23.256;2023-05-07T18:19:49;8.50;;;7.70;;
20298;SDS011;10308;42.688;23.256;2023-05-07T18:22:17;9.38;;;8.48;;
20298;SDS011;10308;42.688;23.256;2023-05-07T18:24:48;11.77;;;8.52;;
20298;SDS011;10308;42.688;23.256;2023-05-07T18:27:19;10.05;;;8.68;;
20298;SDS011;10308;42.688;23.256;2023-05-07T18:29:49;8.32;;;7.53;;
20298;SDS011;10308;42.688;23.256;2023-05-07T18:32:19;8.27;;;7.43;;
20298;SDS011;10308;42.688;23.256;2023-05-07T18:34:49;7.25;;;6.47;;
20298;SDS011;10308;42.688;23.256;2023-05-07T18:37:21;7.53;;;6.80;;
20298;SDS011;10308;42.688;23.256;2023-05-07T18:39:50;7.20;;;6.60;;
20298;SDS011;10308;42.688;23.256;2023-05-07T18:42:21;6.75;;;6.03;;
20298;SDS011;10308;42.688;23.256;2023-05-07T18:44:50;6.10;;;5.60;;
20298;SDS011;10308;42.688;23.256;2023-05-07T18:47:21;5.82;;;5.32;;
20298;SDS011;10308;42.688;23.256;2023-05-07T18:49:49;6.97;;;5.72;;
20298;SDS011;10308;42.688;23.256;2023-05-07T18:52:18;7.32;;;6.63;;
20298;SDS011;10308;42.688;23.256;2023-05-07T18:54:50;7.07;;;5.80;;
20298;SDS011;10308;42.688;23.256;2023-05-07T18:57:24;10.65;;;7.35;;
20298;SDS011;10308;42.688;23.256;2023-05-07T18:59:56;10.32;;;7.60;;
20298;SDS011;10308;42.688;23.256;2023-05-07T19:02:24;8.73;;;6.57;;
20298;SDS011;10308;42.688;23.256;2023-05-07T19:05:00;6.53;;;5.93;;
20298;SDS011;10308;42.688;23.256;2023-05-07T19:07:28;6.40;;;5.80;;
20298;SDS011;10308;42.688;23.256;2023-05-07T19:09:59;5.68;;;5.15;;
20298;SDS011;10308;42.688;23.256;2023-05-07T19:12:31;6.18;;;5.28;;
20298;SDS011;10308;42.688;23.256;2023-05-07T19:14:57;5.10;;;4.70;;
20298;SDS011;10308;42.688;23.256;2023-05-07T19:17:24;5.20;;;4.80;;
20298;SDS011;10308;42.688;23.256;2023-05-07T19:19:55;5.60;;;5.10;;
20298;SDS011;10308;42.688;23.256;2023-05-07T19:22:25;5.40;;;4.90;;
20298;SDS011;10308;42.688;23.256;2023-05-07T19:24:54;5.85;;;5.35;;
20298;SDS011;10308;42.688;23.256;2023-05-07T19:27:23;6.18;;;5.47;;
20298;SDS011;10308;42.688;23.256;2023-05-07T19:29:55;5.72;;;5.07;;
20298;SDS011;10308;42.688;23.256;2023-05-07T19:32:27;6.05;;;4.88;;
20298;SDS011;10308;42.688;23.256;2023-05-07T19:34:55;5.63;;;5.10;;
20298;SDS011;10308;42.688;23.256;2023-05-07T19:37:24;6.65;;;5.15;;
20298;SDS011;10308;42.688;23.256;2023-05-07T19:39:55;7.28;;;6.43;;
20298;SDS011;10308;42.688;23.256;2023-05-07T19:42:30;7.35;;;6.65;;
20298;SDS011;10308;42.688;23.256;2023-05-07T19:45:02;10.45;;;8.70;;
20298;SDS011;10308;42.688;23.256;2023-05-07T19:47:35;12.68;;;11.68;;
20298;SDS011;10308;42.688;23.256;2023-05-07T19:50:11;10.95;;;9.95;;
20298;SDS011;10308;42.688;23.256;2023-05-07T19:52:40;11.73;;;8.77;;
20298;SDS011;10308;42.688;23.256;2023-05-07T19:55:08;9.63;;;8.63;;
20298;SDS011;10308;42.688;23.256;2023-05-07T19:57:39;10.35;;;9.35;;
20298;SDS011;10308;42.688;23.256;2023-05-07T20:00:13;9.48;;;8.57;;
20298;SDS011;10308;42.688;23.256;2023-05-07T20:02:47;7.97;;;7.18;;
20298;SDS011;10308;42.688;23.256;2023-05-07T20:05:23;7.15;;;6.55;;
20298;SDS011;10308;42.688;23.256;2023-05-07T20:07:53;6.70;;;6.13;;
20298;SDS011;10308;42.688;23.256;2023-05-07T20:10:26;6.78;;;6.18;;
20298;SDS011;10308;42.688;23.256;2023-05-07T20:12:53;6.40;;;5.80;;
20298;SDS011;10308;42.688;23.256;2023-05-07T20:15:23;7.00;;;6.30;;
20298;SDS011;10308;42.688;23.256;2023-05-07T20:17:50;7.68;;;6.30;;
20298;SDS011;10308;42.688;23.256;2023-05-07T20:20:17;6.38;;;5.88;;
20298;SDS011;10308;42.688;23.256;2023-05-07T20:22:46;7.45;;;6.50;;
20298;SDS011;10308;42.688;23.256;2023-05-07T20:25:17;7.25;;;6.55;;
20298;SDS011;10308;42.688;23.256;2023-05-07T20:27:46;8.20;;;6.40;;
20298;SDS011;10308;42.688;23.256;2023-05-07T20:30:17;6.90;;;6.00;;
20298;SDS011;10308;42.688;23.256;2023-05-07T20:32:53;9.23;;;6.85;;
20298;SDS011;10308;42.688;23.256;2023-05-07T20:35:22;7.18;;;6.47;;
20298;SDS011;10308;42.688;23.256;2023-05-07T20:37:59;7.47;;;6.85;;
20298;SDS011;10308;42.688;23.256;2023-05-07T20:40:27;7.18;;;6.57;;
20298;SDS011;10308;42.688;23.256;2023-05-07T20:42:59;7.65;;;6.90;;
20298;SDS011;10308;42.688;23.256;2023-05-07T20:45:30;8.07;;;6.68;;
20298;SDS011;10308;42.688;23.256;2023-05-07T20:48:04;7.05;;;6.35;;
20298;SDS011;10308;42.688;23.256;2023-05-07T20:50:35;7.32;;;6.50;;
20298;SDS011;10308;42.688;23.256;2023-05-07T20:53:07;7.57;;;6.78;;
20298;SDS011;10308;42.688;23.256;2023-05-07T20:55:37;7.07;;;6.18;;
20298;SDS011;10308;42.688;23.256;2023-05-07T20:58:04;6.90;;;6.30;;
20298;SDS011;10308;42.688;23.256;2023-05-07T21:00:40;7.30;;;6.60;;
20298;SDS011;10308;42.688;23.256;2023-05-07T21:03:16;7.53;;;5.63;;
20298;SDS011;10308;42.688;23.256;2023-05-07T21:05:49;6.18;;;5.63;;
20298;SDS011;10308;42.688;23.256;2023-05-07T21:08:21;6.13;;;5.63;;
20298;SDS011;10308;42.688;23.256;2023-05-07T21:10:51;6.93;;;6.30;;
20298;SDS011;10308;42.688;23.256;2023-05-07T21:13:19;6.65;;;6.05;;
20298;SDS011;10308;42.688;23.256;2023-05-07T21:15:48;6.03;;;5.53;;
20298;SDS011;10308;42.688;23.256;2023-05-07T21:18:20;5.93;;;5.47;;
